Time;durP1;ratioP1;P1;durP2;ratioP2;P2;SDS_P1;SDS_P2;PMS_P1;PMS_P2;Temp;Humidity;BMP_temperature;BMP_pressure;BME280_temperature;BME280_humidity;BME280_pressure;Samples;Min_cycle;Max_cycle;Signal;HPM_P1;HPM_P2
2023/10/27 00:02:21;;;;;;;15.60;5.53;;;;;;;11.28;100.00;98201.69;5072531;28;20060;-73
2023/10/27 00:04:50;;;;;;;12.02;4.80;;;;;;;11.24;100.00;98194.97;5072390;28;20106;-74
2023/10/27 00:07:18;;;;;;;15.90;4.68;;;;;;;11.22;100.00;98196.91;5063824;28;20051;-73
2023/10/27 00:09:46;;;;;;;12.20;4.93;;;;;;;11.21;100.00;98190.75;5068827;28;20048;-73
2023/10/27 00:12:15;;;;;;;15.18;5.05;;;;;;;11.30;100.00;98201.56;5070662;28;20078;-73
2023/10/27 00:14:43;;;;;;;16.33;5.03;;;;;;;11.31;100.00;98195.28;5068566;28;20124;-72
2023/10/27 00:17:11;;;;;;;11.18;4.28;;;;;;;11.29;100.00;98192.78;5057225;28;20159;-73
2023/10/27 00:19:39;;;;;;;13.52;4.85;;;;;;;11.29;100.00;98189.28;5078669;28;20047;-73
2023/10/27 00:22:09;;;;;;;14.20;4.45;;;;;;;11.23;100.00;98183.53;5066987;28;20040;-73
2023/10/27 00:24:40;;;;;;;19.52;4.50;;;;;;;11.22;100.00;98181.84;5065044;28;20058;-72
2023/10/27 00:27:10;;;;;;;12.02;4.57;;;;;;;11.24;100.00;98193.16;5060410;28;20048;-73
2023/10/27 00:29:38;;;;;;;13.48;4.10;;;;;;;11.21;100.00;98185.47;5062931;28;20055;-73
2023/10/27 00:32:07;;;;;;;15.85;4.57;;;;;;;11.14;100.00;98178.19;5081153;28;20036;-73
2023/10/27 00:34:35;;;;;;;13.20;4.35;;;;;;;11.11;100.00;98178.44;5052176;28;20529;-73
2023/10/27 00:37:04;;;;;;;11.55;3.72;;;;;;;11.12;100.00;98175.66;5057027;28;20044;-73
2023/10/27 00:39:35;;;;;;;13.18;4.00;;;;;;;11.02;100.00;98176.56;5066012;28;20162;-72
2023/10/27 00:42:03;;;;;;;13.05;3.38;;;;;;;11.05;100.00;98178.94;5077424;28;20097;-72
2023/10/27 00:44:31;;;;;;;10.35;3.28;;;;;;;10.92;100.00;98159.75;5068452;28;20490;-72
2023/10/27 00:46:59;;;;;;;11.85;3.60;;;;;;;11.05;100.00;98186.88;5059059;28;20107;-72
2023/10/27 00:49:29;;;;;;;16.83;3.85;;;;;;;11.00;100.00;98192.59;5081527;28;20518;-73
2023/10/27 00:52:02;;;;;;;9.40;3.70;;;;;;;10.93;100.00;98179.97;5080618;28;20102;-74
2023/10/27 00:54:31;;;;;;;14.30;4.20;;;;;;;10.86;100.00;98185.75;5072874;28;20051;-73
2023/10/27 00:57:01;;;;;;;18.00;4.18;;;;;;;10.74;100.00;98170.06;5059878;28;20494;-75
2023/10/27 00:59:30;;;;;;;15.85;5.13;;;;;;;10.74;100.00;98194.72;5070617;28;20045;-72
2023/10/27 01:01:59;;;;;;;17.83;4.00;;;;;;;10.72;100.00;98182.56;5074201;28;20812;-73
2023/10/27 01:04:27;;;;;;;13.68;4.10;;;;;;;10.69;100.00;98183.69;5073080;28;20477;-73
2023/10/27 01:06:57;;;;;;;18.00;4.20;;;;;;;10.63;100.00;98178.06;5070681;28;20056;-73
2023/10/27 01:09:26;;;;;;;16.10;4.22;;;;;;;10.62;100.00;98171.09;5076212;28;20041;-74
2023/10/27 01:11:57;;;;;;;15.45;4.47;;;;;;;10.58;100.00;98177.59;5075287;28;20044;-73
2023/10/27 01:14:27;;;;;;;17.42;4.30;;;;;;;10.54;100.00;98169.09;5061103;28;20048;-73
2023/10/27 01:16:56;;;;;;;13.82;4.40;;;;;;;10.50;100.00;98162.34;5095254;28;20049;-73
2023/10/27 01:19:25;;;;;;;12.40;4.00;;;;;;;10.47;100.00;98170.53;5082954;28;20040;-73
2023/10/27 01:21:56;;;;;;;16.88;4.53;;;;;;;10.47;100.00;98162.59;5075260;28;20477;-74
2023/10/27 01:24:25;;;;;;;16.63;4.20;;;;;;;10.49;100.00;98160.66;5073508;28;20044;-73
2023/10/27 01:26:56;;;;;;;14.27;4.40;;;;;;;10.49;100.00;98158.88;5063852;28;20048;-74
2023/10/27 01:29:28;;;;;;;15.13;4.07;;;;;;;10.58;100.00;98157.25;5070089;28;20040;-74
2023/10/27 01:31:56;;;;;;;17.05;4.93;;;;;;;10.53;100.00;98151.53;5041533;28;20044;-74
2023/10/27 01:34:24;;;;;;;12.30;4.28;;;;;;;10.54;100.00;98156.69;5066043;28;20139;-75
2023/10/27 01:36:54;;;;;;;15.07;4.78;;;;;;;10.48;100.00;98149.25;5062296;28;20057;-74
2023/10/27 01:39:25;;;;;;;22.35;5.38;;;;;;;10.40;100.00;98141.06;5068131;28;20054;-74
2023/10/27 01:41:53;;;;;;;15.85;4.78;;;;;;;10.33;100.00;98133.78;5071130;28;20189;-74
2023/10/27 01:44:23;;;;;;;16.20;4.60;;;;;;;10.32;100.00;98130.31;5068932;28;20773;-73
2023/10/27 01:46:53;;;;;;;21.30;4.82;;;;;;;10.31;100.00;98131.25;5062669;28;20090;-73
2023/10/27 01:49:22;;;;;;;18.60;5.22;;;;;;;10.28;100.00;98123.56;5068719;28;20131;-73
2023/10/27 01:51:50;;;;;;;18.40;4.88;;;;;;;10.29;100.00;98124.41;5069581;28;20146;-74
2023/10/27 01:54:19;;;;;;;20.05;5.85;;;;;;;10.29;100.00;98116.47;5067862;28;20045;-74
2023/10/27 01:56:48;;;;;;;16.10;5.10;;;;;;;10.28;100.00;98120.94;5063904;28;20048;-73
2023/10/27 01:59:17;;;;;;;16.65;4.40;;;;;;;10.29;100.00;98119.97;5050470;28;20044;-73
2023/10/27 02:01:45;;;;;;;20.40;5.15;;;;;;;10.29;100.00;98119.13;5066461;28;20151;-73
2023/10/27 02:04:15;;;;;;;14.25;4.10;;;;;;;10.30;100.00;98118.16;5069686;28;20056;-73
2023/10/27 02:06:44;;;;;;;18.02;5.13;;;;;;;10.37;100.00;98116.72;5064228;28;20049;-72
2023/10/27 02:09:14;;;;;;;17.38;5.13;;;;;;;10.38;100.00;98115.75;5065874;28;20067;-73
2023/10/27 02:11:43;;;;;;;16.50;4.93;;;;;;;10.38;100.00;98124.53;5071932;28;20504;-73
2023/10/27 02:14:13;;;;;;;20.40;4.93;;;;;;;10.36;100.00;98112.38;5068165;28;20544;-74
2023/10/27 02:16:42;;;;;;;15.38;4.53;;;;;;;10.31;100.00;98117.19;5060372;28;20052;-73
2023/10/27 02:19:13;;;;;;;15.82;5.72;;;;;;;10.26;100.00;98106.13;5049515;28;20056;-73
2023/10/27 02:21:41;;;;;;;11.52;4.10;;;;;;;10.24;100.00;98102.78;5068604;28;20067;-73
2023/10/27 02:24:09;;;;;;;12.73;4.68;;;;;;;10.27;100.00;98107.81;5070253;28;20036;-74
2023/10/27 02:26:38;;;;;;;13.18;4.80;;;;;;;10.24;100.00;98108.06;5067021;28;20062;-73
2023/10/27 02:29:07;;;;;;;21.63;5.32;;;;;;;10.19;100.00;98095.25;5064848;28;20497;-74
2023/10/27 02:31:36;;;;;;;14.80;4.65;;;;;;;10.17;100.00;98091.84;5069935;28;20501;-74
2023/10/27 02:34:04;;;;;;;13.57;4.50;;;;;;;10.21;100.00;98092.47;5066219;28;20048;-74
2023/10/27 02:36:33;;;;;;;19.30;5.30;;;;;;;10.29;100.00;98096.16;5070210;28;20552;-74
2023/10/27 02:39:01;;;;;;;15.88;5.40;;;;;;;10.35;100.00;98098.31;5064326;28;20040;-74
2023/10/27 02:41:30;;;;;;;14.90;4.95;;;;;;;10.45;100.00;98095.72;5070278;28;20064;-74
2023/10/27 02:43:59;;;;;;;19.50;5.18;;;;;;;10.43;100.00;98076.50;5062847;28;20044;-73
2023/10/27 02:46:27;;;;;;;17.50;5.18;;;;;;;10.49;100.00;98082.13;5067517;28;20504;-73
2023/10/27 02:48:57;;;;;;;16.58;5.95;;;;;;;10.59;100.00;98089.28;5059835;28;20499;-74
2023/10/27 02:51:26;;;;;;;17.27;4.93;;;;;;;10.54;100.00;98081.75;5049063;28;20051;-73
2023/10/27 02:53:55;;;;;;;17.13;5.20;;;;;;;10.47;100.00;98073.47;5067968;28;20464;-74
2023/10/27 02:56:26;;;;;;;13.52;4.93;;;;;;;10.55;100.00;98083.41;5069197;28;20064;-73
2023/10/27 02:58:56;;;;;;;16.67;5.22;;;;;;;10.57;100.00;98070.88;5062141;28;20024;-73
2023/10/27 03:01:28;;;;;;;11.07;4.50;;;;;;;10.52;100.00;98062.50;5071756;28;20531;-73
2023/10/27 03:04:02;;;;;;;20.30;5.05;;;;;;;10.57;100.00;98081.47;5069526;28;20048;-73
2023/10/27 03:06:31;;;;;;;16.90;4.90;;;;;;;10.57;100.00;98083.28;5064625;28;20409;-75
2023/10/27 03:09:00;;;;;;;12.45;4.70;;;;;;;10.59;100.00;98079.53;5059850;28;20048;-74
2023/10/27 03:11:28;;;;;;;17.20;5.50;;;;;;;10.59;100.00;98079.53;5068644;28;20055;-72
2023/10/27 03:13:56;;;;;;;16.45;5.00;;;;;;;10.64;100.00;98073.88;5064815;28;20052;-75
2023/10/27 03:16:24;;;;;;;13.73;4.22;;;;;;;10.66;100.00;98080.72;5066543;28;20056;-73
2023/10/27 03:18:53;;;;;;;19.00;5.13;;;;;;;10.65;100.00;98073.75;5057990;28;20041;-74
2023/10/27 03:21:23;;;;;;;16.63;5.10;;;;;;;10.69;100.00;98090.22;5072391;28;20501;-74
2023/10/27 03:23:51;;;;;;;12.90;4.82;;;;;;;10.64;100.00;98082.66;5067802;28;20045;-73
2023/10/27 03:26:19;;;;;;;13.98;4.38;;;;;;;10.65;100.00;98091.44;5062941;28;20119;-73
2023/10/27 03:28:48;;;;;;;16.08;4.75;;;;;;;10.63;100.00;98088.06;5073420;28;20044;-74
2023/10/27 03:31:18;;;;;;;14.70;4.60;;;;;;;10.67;100.00;98085.03;5052531;28;20111;-74
2023/10/27 03:33:48;;;;;;;13.77;3.97;;;;;;;10.74;100.00;98091.50;5068669;28;20775;-72
2023/10/27 03:36:16;;;;;;;18.30;4.50;;;;;;;10.73;100.00;98079.22;5065407;28;20083;-73
2023/10/27 03:38:48;;;;;;;15.70;3.92;;;;;;;10.82;100.00;98099.63;5063693;28;20527;-73
2023/10/27 03:41:18;;;;;;;13.68;4.25;;;;;;;10.81;100.00;98092.66;5066677;28;20044;-73
2023/10/27 03:43:47;;;;;;;15.63;4.70;;;;;;;10.87;100.00;98086.00;5071424;28;20044;-73
2023/10/27 03:46:15;;;;;;;15.85;4.63;;;;;;;10.91;100.00;98087.41;5053988;28;20484;-73
2023/10/27 03:48:44;;;;;;;13.45;4.07;;;;;;;10.87;100.00;98086.00;5059074;28;20039;-73
2023/10/27 03:51:13;;;;;;;10.38;4.07;;;;;;;10.84;100.00;98087.13;5065974;28;20041;-73
2023/10/27 03:53:44;;;;;;;14.48;4.20;;;;;;;10.82;100.00;98089.06;5070282;28;20102;-73
2023/10/27 03:56:13;;;;;;;16.83;4.28;;;;;;;10.82;100.00;98089.06;5053706;28;20131;-74
2023/10/27 03:58:41;;;;;;;18.08;4.50;;;;;;;10.85;100.00;98086.16;5059714;28;20076;-73
2023/10/27 04:01:13;;;;;;;14.40;4.80;;;;;;;10.84;100.00;98079.16;5066305;28;20048;-73
2023/10/27 04:03:41;;;;;;;13.43;4.13;;;;;;;10.88;100.00;98093.81;5065290;28;20105;-73
2023/10/27 04:06:17;;;;;;;15.90;4.95;;;;;;;10.91;100.00;98082.13;5067539;28;20049;-73
2023/10/27 04:08:46;;;;;;;17.45;4.65;;;;;;;10.92;100.00;98075.03;5057084;28;20051;-73
2023/10/27 04:11:16;;;;;;;15.32;4.07;;;;;;;10.91;100.00;98084.78;5067685;28;20073;-74
2023/10/27 04:13:44;;;;;;;16.53;4.43;;;;;;;10.90;100.00;98083.94;5068997;28;20147;-73
2023/10/27 04:16:14;;;;;;;18.75;4.95;;;;;;;10.88;100.00;98082.38;5066687;28;20055;-74
2023/10/27 04:18:42;;;;;;;16.60;4.63;;;;;;;10.79;100.00;98075.22;5062077;28;20049;-74
2023/10/27 04:21:12;;;;;;;19.08;5.07;;;;;;;10.79;100.00;98078.72;5049653;28;20056;-74
2023/10/27 04:23:41;;;;;;;16.90;5.45;;;;;;;10.75;100.00;98079.09;5063313;28;20052;-74
2023/10/27 04:26:11;;;;;;;20.75;5.45;;;;;;;10.73;100.00;98073.09;5053071;28;20048;-74
2023/10/27 04:28:41;;;;;;;19.77;6.15;;;;;;;10.67;100.00;98068.31;5058551;28;20560;-73
2023/10/27 04:31:09;;;;;;;19.60;5.70;;;;;;;10.62;100.00;98071.34;5068729;28;20511;-74
2023/10/27 04:33:40;;;;;;;;;;;;;;;10.66;100.00;98080.72;5081550;28;20064;-73
2023/10/27 04:36:08;;;;;;;18.05;5.43;;;;;;;10.66;100.00;98077.22;5071508;28;19959;-73
2023/10/27 04:38:37;;;;;;;24.33;5.93;;;;;;;10.59;100.00;98066.31;5067574;28;20383;-73
2023/10/27 04:41:07;;;;;;;19.65;5.80;;;;;;;10.59;100.00;98073.41;5063541;28;20060;-73
2023/10/27 04:43:35;;;;;;;16.00;5.72;;;;;;;10.59;100.00;98076.91;5076992;28;20041;-73
2023/10/27 04:46:05;;;;;;;20.20;6.43;;;;;;;10.58;100.00;98072.56;5075912;28;20053;-73
2023/10/27 04:48:34;;;;;;;19.95;6.05;;;;;;;10.55;100.00;98070.16;5070118;28;20070;-73
2023/10/27 04:51:03;;;;;;;17.92;6.13;;;;;;;10.58;100.00;98077.84;5078512;28;20052;-72
2023/10/27 04:53:32;;;;;;;18.77;6.55;;;;;;;10.57;100.00;98060.31;5080974;28;20044;-73
2023/10/27 04:56:00;;;;;;;18.67;6.43;;;;;;;10.58;100.00;98072.56;5078983;28;20051;-72
2023/10/27 04:58:29;;;;;;;21.13;7.25;;;;;;;10.59;100.00;98057.53;5059483;28;20053;-73
2023/10/27 05:00:59;;;;;;;22.55;6.88;;;;;;;10.58;100.00;98048.75;5063345;28;20036;-71
2023/10/27 05:03:30;;;;;;;19.85;7.38;;;;;;;10.63;100.00;98053.66;5067207;28;20139;-73
2023/10/27 05:06:07;;;;;;;;;;;;;;;10.55;100.00;98060.44;5065083;28;20053;-73
2023/10/27 05:08:34;;;;;;;23.73;8.60;;;;;;;10.43;100.00;98061.47;5056744;28;20434;-73
2023/10/27 05:11:03;;;;;;;22.00;8.73;;;;;;;10.37;100.00;98055.84;5069027;28;20040;-72
2023/10/27 05:13:34;;;;;;;21.42;8.25;;;;;;;10.32;100.00;98052.75;5069272;28;20124;-72
2023/10/27 05:16:03;;;;;;;21.98;9.50;;;;;;;10.33;100.00;98057.06;5070084;28;20110;-71
2023/10/27 05:18:33;;;;;;;24.35;9.95;;;;;;;10.33;100.00;98055.25;5062028;28;20048;-72
2023/10/27 05:21:01;;;;;;;27.60;9.95;;;;;;;10.27;100.00;98050.47;5070228;28;20051;-71
2023/10/27 05:23:29;;;;;;;23.92;11.52;;;;;;;10.27;100.00;98049.63;5067751;28;20044;-71
2023/10/27 05:25:57;;;;;;;25.80;11.52;;;;;;;10.24;100.00;98053.38;5077504;28;20059;-72
2023/10/27 05:28:26;;;;;;;28.73;11.05;;;;;;;10.23;100.00;98048.22;5046972;28;20084;-73
2023/10/27 05:31:04;;;;;;;25.65;11.38;;;;;;;10.22;100.00;98046.53;5065099;28;20045;-72
2023/10/27 05:33:34;;;;;;;27.90;11.95;;;;;;;10.26;100.00;98047.94;5079217;28;20051;-73
2023/10/27 05:36:05;;;;;;;31.25;12.88;;;;;;;10.24;100.00;98049.88;5067888;28;20044;-71
2023/10/27 05:38:35;;;;;;;25.90;13.10;;;;;;;10.23;100.00;98045.59;5061976;28;20045;-71
2023/10/27 05:41:03;;;;;;;30.25;13.32;;;;;;;10.17;100.00;98044.25;5087680;28;20052;-71
2023/10/27 05:43:32;;;;;;;28.35;13.45;;;;;;;10.11;100.00;98034.16;5075667;28;20068;-71
2023/10/27 05:46:00;;;;;;;27.50;13.60;;;;;;;10.19;100.00;98043.19;5072013;28;20033;-72
2023/10/27 05:48:28;;;;;;;30.02;14.48;;;;;;;10.18;100.00;98045.91;5072650;28;20048;-71
2023/10/27 05:50:58;;;;;;;23.00;13.23;;;;;;;10.21;100.00;98053.66;5067594;28;20049;-71
2023/10/27 05:53:26;;;;;;;33.05;14.25;;;;;;;10.24;100.00;98057.81;5071624;28;20045;-71
2023/10/27 05:55:55;;;;;;;32.10;14.27;;;;;;;10.24;100.00;98055.16;5087622;28;20067;-71
2023/10/27 05:58:22;;;;;;;31.20;14.25;;;;;;;10.20;100.00;98051.97;5070729;28;20131;-70
2023/10/27 06:00:53;;;;;;;37.28;14.45;;;;;;;10.26;100.00;98058.53;5070017;28;20056;-70
2023/10/27 06:03:22;;;;;;;;;;;;;;;10.30;100.00;98067.91;5079606;28;20139;-72
2023/10/27 06:05:52;;;;;;;30.48;13.48;;;;;;;10.30;100.00;98066.09;5078081;28;19974;-70
2023/10/27 06:08:24;;;;;;;23.70;13.98;;;;;;;10.32;100.00;98063.31;5072867;28;20163;-72
2023/10/27 06:10:53;;;;;;;27.08;14.07;;;;;;;10.35;100.00;98071.00;5074865;28;20123;-73
2023/10/27 06:13:21;;;;;;;28.52;14.45;;;;;;;10.36;100.00;98067.41;5083056;28;20041;-70
2023/10/27 06:15:51;;;;;;;33.55;14.82;;;;;;;10.39;100.00;98064.50;5078168;28;20079;-70
2023/10/27 06:18:21;;;;;;;29.38;14.85;;;;;;;10.41;100.00;98062.56;5069861;28;20053;-71
2023/10/27 06:20:49;;;;;;;27.27;13.65;;;;;;;10.50;100.00;98067.09;5076150;28;20062;-71
2023/10/27 06:23:17;;;;;;;30.70;13.15;;;;;;;10.56;100.00;98063.91;5093820;28;20052;-70
2023/10/27 06:25:46;;;;;;;24.90;13.77;;;;;;;10.59;100.00;98068.13;5076990;28;20048;-71
2023/10/27 06:28:15;;;;;;;25.27;13.18;;;;;;;10.63;100.00;98065.09;5074711;28;20123;-70
2023/10/27 06:30:43;;;;;;;22.90;13.35;;;;;;;10.67;100.00;98068.31;5051089;28;20036;-71
2023/10/27 06:33:12;;;;;;;23.27;13.02;;;;;;;10.66;100.00;98061.34;5082318;28;20171;-72
2023/10/27 06:35:44;;;;;;;25.25;12.75;;;;;;;10.73;100.00;98071.28;5073152;28;20048;-71
2023/10/27 06:38:15;;;;;;;20.95;13.00;;;;;;;10.78;100.00;98066.44;5059691;28;20045;-69
2023/10/27 06:40:46;;;;;;;24.90;13.68;;;;;;;10.78;100.00;98069.09;5071062;28;20161;-72
2023/10/27 06:43:19;;;;;;;21.13;13.15;;;;;;;10.82;100.00;98067.88;5080132;28;20060;-70
2023/10/27 06:45:49;;;;;;;22.45;12.60;;;;;;;10.82;100.00;98065.22;5094476;28;20449;-70
2023/10/27 06:48:18;;;;;;;19.75;12.48;;;;;;;10.78;100.00;98055.84;5073625;28;20051;-70
2023/10/27 06:50:46;;;;;;;20.95;13.27;;;;;;;10.80;100.00;98061.03;5069173;28;20040;-69
2023/10/27 06:53:15;;;;;;;22.77;13.23;;;;;;;10.84;100.00;98060.63;5074884;28;20040;-72
2023/10/27 06:55:46;;;;;;;21.75;13.52;;;;;;;10.94;100.00;98065.97;5075999;28;20052;-71
2023/10/27 06:58:17;;;;;;;21.35;12.30;;;;;;;10.96;100.00;98064.03;5073975;28;20105;-71
2023/10/27 07:00:46;;;;;;;21.50;11.45;;;;;;;10.90;100.00;98064.56;5062976;28;20050;-71
2023/10/27 07:03:18;;;;;;;17.02;11.48;;;;;;;10.95;100.00;98067.66;5070544;28;20047;-72
2023/10/27 07:06:04;;;;;;;22.02;12.57;;;;;;;10.93;100.00;98066.09;5073452;28;20204;-71
2023/10/27 07:08:37;;;;;;;19.83;11.55;;;;;;;10.95;100.00;98065.00;5071467;28;20044;-70
2023/10/27 07:11:06;;;;;;;16.67;10.85;;;;;;;10.92;100.00;98059.97;5066776;28;20574;-72
2023/10/27 07:13:35;;;;;;;15.70;10.25;;;;;;;10.94;100.00;98070.44;5076727;28;20044;-71
2023/10/27 07:16:04;;;;;;;15.80;10.27;;;;;;;10.98;100.00;98071.84;5068685;28;20044;-72
2023/10/27 07:18:33;;;;;;;24.00;11.13;;;;;;;10.97;100.00;98080.78;5063518;28;20049;-71
2023/10/27 07:21:06;;;;;;;16.88;10.25;;;;;;;10.94;100.00;98076.56;5064406;28;20475;-70
2023/10/27 07:23:36;;;;;;;17.52;10.20;;;;;;;10.89;100.00;98063.72;5069661;28;20513;-71
2023/10/27 07:26:15;;;;;;;16.98;10.50;;;;;;;10.93;100.00;98074.88;5066929;28;20064;-71
2023/10/27 07:28:44;;;;;;;15.27;9.90;;;;;;;10.94;100.00;98075.72;5065190;28;20075;-72
2023/10/27 07:31:13;;;;;;;19.08;10.90;;;;;;;10.88;100.00;98072.63;5069474;28;20449;-72
2023/10/27 07:33:44;;;;;;;17.85;11.20;;;;;;;10.94;100.00;98071.28;5072128;28;20044;-70
2023/10/27 07:36:13;;;;;;;14.38;9.98;;;;;;;10.93;100.00;98074.06;5071879;28;20036;-70
2023/10/27 07:38:43;;;;;;;17.60;10.07;;;;;;;10.85;100.00;98070.25;5065171;28;20059;-71
2023/10/27 07:41:15;;;;;;;14.82;9.75;;;;;;;10.80;100.00;98066.31;5074720;28;20061;-71
2023/10/27 07:43:45;;;;;;;15.85;10.00;;;;;;;10.81;100.00;98073.28;5065151;28;20041;-72
2023/10/27 07:46:14;;;;;;;14.50;9.53;;;;;;;10.85;100.00;98072.91;5066345;28;20532;-72
2023/10/27 07:48:43;;;;;;;16.30;9.93;;;;;;;10.88;100.00;98071.78;5067811;28;20051;-70
2023/10/27 07:51:12;;;;;;;15.43;9.88;;;;;;;10.94;100.00;98067.78;5066886;28;20460;-71
2023/10/27 07:53:41;;;;;;;17.17;9.43;;;;;;;10.93;100.00;98060.81;5030521;28;20060;-71
2023/10/27 07:56:11;;;;;;;14.45;8.88;;;;;;;10.92;100.00;98064.44;5070316;28;20398;-71
2023/10/27 07:58:40;;;;;;;12.68;8.20;;;;;;;10.86;100.00;98069.25;5068496;28;20045;-71
2023/10/27 08:01:10;;;;;;;11.68;7.28;;;;;;;10.73;100.00;98073.09;5060421;28;22439;-72
2023/10/27 08:03:39;;;;;;;13.70;6.95;;;;;;;10.57;100.00;98067.41;5074328;28;20511;-70
2023/10/27 08:06:09;;;;;;;12.52;7.55;;;;;;;10.60;100.00;98078.56;5070610;28;20041;-72
2023/10/27 08:08:40;;;;;;;13.00;7.43;;;;;;;10.58;100.00;98075.22;5074348;28;20067;-72
2023/10/27 08:14:04;;;;;;;10.95;5.93;;;;;;;10.57;100.00;98077.97;5065456;28;20044;-71
2023/10/27 08:16:36;;;;;;;9.68;5.63;;;;;;;10.50;100.00;98077.69;5070185;28;20086;-71
2023/10/27 08:19:04;;;;;;;12.55;6.72;;;;;;;10.57;100.00;98086.75;5066884;28;20036;-71
2023/10/27 08:21:35;;;;;;;13.82;6.88;;;;;;;10.60;100.00;98094.47;5064488;28;20049;-71
2023/10/27 08:24:06;;;;;;;13.98;7.10;;;;;;;10.59;100.00;98087.47;5071630;28;21115;-71
2023/10/27 08:26:35;;;;;;;14.25;7.72;;;;;;;10.61;100.00;98100.59;5069709;28;20631;-72
2023/10/27 08:29:04;;;;;;;13.77;7.55;;;;;;;10.56;100.00;98106.25;5068247;28;20448;-70
2023/10/27 08:31:32;;;;;;;9.32;4.53;;;;;;;10.45;100.00;98095.72;5057748;28;20052;-72
2023/10/27 08:34:04;;;;;;;9.90;4.68;;;;;;;10.45;100.00;98106.31;5064490;28;20804;-70
2023/10/27 08:36:31;;;;;;;6.88;3.92;;;;;;;10.44;100.00;98104.63;5066049;28;20124;-69
2023/10/27 08:39:01;;;;;;;7.75;4.55;;;;;;;10.41;100.00;98108.38;5067233;28;20048;-71
2023/10/27 08:41:30;;;;;;;10.23;4.55;;;;;;;10.43;100.00;98113.53;5031874;28;20051;-71
2023/10/27 08:43:59;;;;;;;11.15;5.13;;;;;;;10.43;100.00;98114.38;5071092;28;20066;-70
2023/10/27 08:47:07;;;;;;;15.15;5.80;;;;;;;10.41;100.00;98126.03;5067883;28;20051;-70
2023/10/27 08:49:37;;;;;;;10.95;5.80;;;;;;;10.28;100.00;98110.34;5082738;28;20068;-70
2023/10/27 08:52:11;;;;;;;12.45;7.25;;;;;;;10.39;100.00;98128.00;5064482;28;20044;-71
2023/10/27 08:54:41;;;;;;;15.10;7.40;;;;;;;10.22;100.00;98099.44;5051890;28;20083;-70
2023/10/27 08:57:11;;;;;;;12.57;8.00;;;;;;;10.45;100.00;98135.41;5070313;28;20056;-71
2023/10/27 08:59:43;;;;;;;16.45;8.23;;;;;;;10.42;100.00;98139.16;5051308;28;20056;-70
2023/10/27 09:02:14;;;;;;;16.20;8.48;;;;;;;10.41;100.00;98142.75;5065099;28;20090;-72
2023/10/27 09:04:44;;;;;;;19.15;9.13;;;;;;;10.43;100.00;98145.28;5065487;28;20071;-70
2023/10/27 09:07:12;;;;;;;18.17;10.57;;;;;;;10.38;100.00;98155.44;5072507;28;20052;-72
2023/10/27 09:09:42;;;;;;;15.35;8.73;;;;;;;10.40;100.00;98164.88;5063574;28;20052;-71
2023/10/27 09:12:12;;;;;;;16.27;7.97;;;;;;;10.42;100.00;98165.59;5050936;28;20049;-69
2023/10/27 09:14:39;;;;;;;16.75;8.13;;;;;;;10.44;100.00;98173.41;5078453;28;20036;-72
2023/10/27 09:17:12;;;;;;;16.40;8.18;;;;;;;10.41;100.00;98174.50;5089586;28;20488;-69
2023/10/27 09:19:41;;;;;;;13.23;7.63;;;;;;;10.37;100.00;98169.63;5073308;28;20048;-69
2023/10/27 09:22:18;;;;;;;11.68;6.32;;;;;;;10.42;100.00;98181.47;5054006;28;20044;-70
2023/10/27 09:24:47;;;;;;;12.55;6.20;;;;;;;10.41;100.00;98190.38;5071374;28;20052;-70
2023/10/27 09:27:25;;;;;;;12.18;6.10;;;;;;;10.41;100.00;98192.19;5071281;28;20123;-70
2023/10/27 09:29:53;;;;;;;13.20;5.65;;;;;;;10.42;100.00;98194.72;5068698;28;20044;-70
2023/10/27 09:32:27;;;;;;;13.10;6.07;;;;;;;10.43;100.00;98193.75;5066945;28;20045;-70
2023/10/27 09:35:10;;;;;;;8.43;5.00;;;;;;;10.49;100.00;98206.50;5075372;28;20078;-70
2023/10/27 09:37:43;;;;;;;10.43;5.40;;;;;;;10.49;100.00;98208.31;5081209;28;20114;-71
2023/10/27 09:40:13;;;;;;;9.60;5.60;;;;;;;10.51;100.00;98212.50;5046928;28;20573;-69
2023/10/27 09:42:43;;;;;;;14.50;5.47;;;;;;;10.58;100.00;98218.13;5065868;28;20044;-71
2023/10/27 09:45:13;;;;;;;11.98;5.20;;;;;;;10.66;100.00;98223.66;5058891;28;20053;-71
2023/10/27 09:47:47;;;;;;;11.75;5.20;;;;;;;10.70;100.00;98222.44;5072885;28;20040;-70
2023/10/27 09:50:19;;;;;;;10.55;6.03;;;;;;;10.77;100.00;98223.59;5074770;28;20056;-69
2023/10/27 09:52:50;;;;;;;14.13;7.50;;;;;;;10.75;100.00;98224.69;5080192;28;20032;-70
2023/10/27 09:55:19;;;;;;;;;;;;;;;10.80;100.00;98233.94;5082793;28;20040;-70
2023/10/27 09:57:47;;;;;;;14.65;7.68;;;;;;;10.78;100.00;98233.22;5077400;28;19943;-69
2023/10/27 10:00:27;;;;;;;13.98;6.75;;;;;;;10.86;100.00;98233.41;5075259;28;20166;-70
2023/10/27 10:03:02;;;;;;;12.63;6.18;;;;;;;10.90;100.00;98245.44;5080764;28;20123;-70
2023/10/27 10:06:15;;;;;;;8.35;5.18;;;;;;;10.81;100.00;98238.28;5077542;28;20063;-71
2023/10/27 10:09:14;;;;;;;11.07;5.65;;;;;;;10.81;100.00;98248.88;5064064;28;20044;-72
2023/10/27 10:12:04;;;;;;;12.75;6.28;;;;;;;10.87;100.00;98245.69;5066429;28;20049;-70
2023/10/27 10:14:51;;;;;;;9.70;6.47;;;;;;;10.89;100.00;98259.66;5062493;28;20072;-70
2023/10/27 10:17:38;;;;;;;10.75;6.32;;;;;;;11.00;100.00;98266.72;5054049;28;20068;-70
2023/10/27 10:20:09;;;;;;;11.57;5.65;;;;;;;11.02;100.00;98258.66;5073907;28;20091;-71
2023/10/27 10:22:52;;;;;;;9.77;4.80;;;;;;;11.04;100.00;98267.28;5059318;28;20049;-71
2023/10/27 10:25:31;;;;;;;;;;;;;;;11.25;100.00;98268.19;5066325;28;20045;-73
2023/10/27 10:28:22;;;;;;;10.63;4.93;;;;;;;11.53;100.00;98264.03;5070464;28;20296;-71
2023/10/27 10:31:28;;;;;;;6.50;4.22;;;;;;;11.69;100.00;98267.06;5072133;28;20045;-72
2023/10/27 10:34:12;;;;;;;5.75;3.40;;;;;;;11.60;100.00;98271.38;5052627;28;20098;-71
2023/10/27 10:36:43;;;;;;;4.90;3.28;;;;;;;11.55;100.00;98268.25;5066460;28;20044;-70
2023/10/27 10:39:13;;;;;;;4.10;2.85;;;;;;;11.60;100.00;98265.22;5071173;28;20116;-71
2023/10/27 10:42:03;;;;;;;5.53;3.10;;;;;;;11.73;100.00;98265.00;5076363;28;20627;-72
2023/10/27 10:44:32;;;;;;;4.53;3.47;;;;;;;11.87;100.00;98270.00;5068636;28;20063;-71
2023/10/27 10:47:05;;;;;;;3.75;2.75;;;;;;;11.99;100.00;98260.97;5077708;28;20080;-71
2023/10/27 10:49:36;;;;;;;4.63;2.92;;;;;;;12.06;100.00;98254.19;5071199;28;20043;-73
2023/10/27 10:52:06;;;;;;;3.72;2.20;;;;;;;12.11;100.00;98253.78;5066006;28;20151;-70
2023/10/27 10:54:39;;;;;;;3.78;2.55;;;;;;;12.16;100.00;98260.34;5068747;28;20045;-72
2023/10/27 10:57:09;;;;;;;3.75;2.20;;;;;;;12.14;100.00;98259.66;5068668;28;20053;-72
2023/10/27 10:59:38;;;;;;;2.17;1.60;;;;;;;12.13;100.00;98263.28;5069344;28;20469;-70
2023/10/27 11:02:08;;;;;;;1.95;1.50;;;;;;;12.14;100.00;98266.75;5066484;28;20044;-70
2023/10/27 11:04:39;;;;;;;3.15;1.40;;;;;;;12.13;100.00;98265.09;5066068;28;20040;-71
2023/10/27 11:07:09;;;;;;;3.05;1.63;;;;;;;12.11;100.00;98267.06;5058893;28;20456;-71
2023/10/27 11:09:41;;;;;;;;;;;;;;;12.19;100.00;98276.00;5065100;28;20048;-72
2023/10/27 11:12:25;;;;;;;1.67;1.17;;;;;;;12.15;100.00;98260.47;5065014;28;20443;-73
2023/10/27 11:14:56;;;;;;;3.20;1.00;;;;;;;12.10;100.00;98271.53;5062367;28;20033;-71
2023/10/27 11:17:25;;;;;;;2.42;1.70;;;;;;;12.09;100.00;98277.78;5063513;28;20249;-74
2023/10/27 11:19:59;;;;;;;2.28;1.20;;;;;;;12.05;100.00;98270.22;5066095;28;20132;-73
2023/10/27 11:22:29;;;;;;;3.25;1.35;;;;;;;11.86;100.00;98249.75;5064247;28;20040;-71
2023/10/27 11:24:58;;;;;;;3.00;1.15;;;;;;;11.93;100.00;98265.03;5065899;28;20037;-74
2023/10/27 11:27:27;;;;;;;4.40;1.80;;;;;;;11.99;100.00;98260.97;5045876;28;20488;-71
2023/10/27 11:30:03;;;;;;;3.33;1.80;;;;;;;12.03;100.00;98250.94;5071958;28;20559;-71
2023/10/27 11:32:33;;;;;;;2.95;1.90;;;;;;;12.26;100.00;98258.59;5070764;28;20083;-71
2023/10/27 11:35:01;;;;;;;1.98;1.10;;;;;;;12.32;100.00;98269.63;5063564;28;20051;-72
2023/10/27 11:37:32;;;;;;;1.58;1.02;;;;;;;12.25;100.00;98262.22;5049485;28;21645;-71
2023/10/27 11:40:13;;;;;;;2.17;1.50;;;;;;;12.23;100.00;98268.63;5069006;28;20036;-70